createdAt,value
2023-06-15T00:00:20.706Z,13.50
2023-06-15T00:02:47.581Z,13.40
2023-06-15T00:05:14.675Z,13.30
2023-06-15T00:07:42.099Z,13.20
2023-06-15T00:10:09.258Z,13.10
2023-06-15T00:12:35.990Z,13.10
2023-06-15T00:15:03.274Z,13.10
2023-06-15T00:17:33.098Z,13.10
2023-06-15T00:20:01.682Z,13.00
2023-06-15T00:22:30.145Z,13.00
2023-06-15T00:24:57.054Z,12.90
2023-06-15T00:27:23.725Z,12.90
2023-06-15T00:29:50.442Z,12.80
2023-06-15T00:32:17.167Z,12.70
2023-06-15T00:34:43.863Z,12.60
2023-06-15T00:37:10.503Z,12.60
2023-06-15T00:39:37.185Z,12.50
2023-06-15T00:42:03.978Z,12.50
2023-06-15T00:47:59.651Z,12.40
2023-06-15T00:50:26.399Z,12.50
2023-06-15T00:52:56.435Z,12.50
2023-06-15T00:55:24.586Z,12.50
2023-06-15T01:01:33.477Z,12.40
2023-06-15T01:04:01.267Z,12.40
2023-06-15T01:06:32.830Z,12.40
2023-06-15T01:09:02.548Z,12.30
2023-06-15T01:11:32.685Z,12.30
2023-06-15T01:14:00.694Z,12.20
2023-06-15T01:16:38.953Z,12.10
2023-06-15T01:19:10.822Z,12.00
2023-06-15T01:21:38.868Z,12.00
2023-06-15T01:24:14.741Z,12.00
2023-06-15T01:26:42.855Z,12.10
2023-06-15T01:29:11.639Z,12.00
2023-06-15T01:31:39.063Z,11.90
2023-06-15T01:34:06.323Z,11.90
2023-06-15T01:36:33.045Z,11.80
2023-06-15T01:38:59.977Z,11.70
2023-06-15T01:41:27.714Z,11.70
2023-06-15T01:43:55.905Z,11.60
2023-06-15T01:46:23.798Z,11.50
2023-06-15T01:48:50.911Z,11.40
2023-06-15T01:51:18.061Z,11.40
2023-06-15T01:53:44.917Z,11.40
2023-06-15T01:56:11.670Z,11.30
2023-06-15T01:58:38.429Z,11.30
2023-06-15T02:01:05.224Z,11.30
2023-06-15T02:03:32.615Z,11.20
2023-06-15T02:05:59.349Z,11.30
2023-06-15T02:08:26.177Z,11.30
2023-06-15T02:10:52.872Z,11.30
2023-06-15T02:13:19.604Z,11.40
2023-06-15T02:15:46.299Z,11.40
2023-06-15T02:18:16.402Z,11.40
2023-06-15T02:20:44.135Z,11.30
2023-06-15T02:23:11.727Z,11.30
2023-06-15T02:25:38.832Z,11.30
2023-06-15T02:28:28.206Z,11.40
2023-06-15T02:31:12.667Z,11.40
2023-06-15T02:33:39.378Z,11.30
2023-06-15T02:36:07.365Z,11.30
2023-06-15T02:38:34.090Z,11.30
2023-06-15T02:41:00.961Z,11.20
2023-06-15T02:43:27.693Z,11.20
2023-06-15T02:45:54.494Z,11.20
2023-06-15T02:48:21.407Z,11.20
2023-06-15T02:50:48.080Z,11.20
2023-06-15T02:53:15.793Z,11.20
2023-06-15T02:55:43.400Z,11.10
2023-06-15T02:58:10.120Z,11.20
2023-06-15T03:00:37.688Z,11.20
2023-06-15T03:03:04.492Z,11.20
2023-06-15T03:05:32.076Z,11.20
2023-06-15T03:07:59.119Z,11.20
2023-06-15T03:10:26.017Z,11.20
2023-06-15T03:12:52.713Z,11.20
2023-06-15T03:15:19.733Z,11.20
2023-06-15T03:17:46.683Z,11.20
2023-06-15T03:20:13.495Z,11.20
2023-06-15T03:22:41.035Z,11.20
2023-06-15T03:25:12.464Z,11.30
2023-06-15T03:27:41.847Z,11.30
2023-06-15T03:30:11.881Z,11.40
2023-06-15T03:32:39.084Z,11.40
2023-06-15T03:35:06.193Z,11.50
2023-06-15T03:37:32.946Z,11.60
2023-06-15T03:39:59.742Z,11.60
2023-06-15T03:42:26.439Z,11.60
2023-06-15T03:44:53.157Z,11.60
2023-06-15T03:47:19.858Z,11.70
2023-06-15T03:49:46.550Z,11.80
2023-06-15T03:52:13.251Z,11.90
2023-06-15T03:54:39.949Z,11.90
2023-06-15T03:57:08.010Z,12.00
2023-06-15T03:59:34.806Z,12.00
2023-06-15T04:02:01.482Z,12.00
2023-06-15T04:04:28.626Z,12.00
2023-06-15T04:06:57.158Z,12.10
2023-06-15T04:09:23.978Z,12.10
2023-06-15T04:11:50.989Z,12.10
2023-06-15T04:14:19.291Z,12.20
2023-06-15T04:16:46.723Z,12.30
2023-06-15T04:19:14.246Z,12.30
2023-06-15T04:21:40.968Z,12.40
2023-06-15T04:24:08.035Z,12.40
2023-06-15T04:26:34.742Z,12.50
2023-06-15T04:29:01.991Z,12.50
2023-06-15T04:31:32.064Z,12.50
2023-06-15T04:34:00.457Z,12.50
2023-06-15T04:36:27.419Z,12.60
2023-06-15T04:38:54.845Z,12.60
2023-06-15T04:41:23.843Z,12.60
2023-06-15T04:43:51.702Z,12.60
2023-06-15T04:46:18.564Z,12.60
2023-06-15T04:48:45.538Z,12.60
2023-06-15T04:51:12.932Z,12.70
2023-06-15T04:53:43.897Z,12.70
2023-06-15T04:56:11.816Z,12.70
2023-06-15T04:58:38.621Z,12.60
2023-06-15T05:01:06.934Z,12.70
2023-06-15T05:03:34.425Z,12.70
2023-06-15T05:06:01.625Z,12.70
2023-06-15T05:08:28.348Z,12.70
2023-06-15T05:10:55.017Z,12.80
2023-06-15T05:13:21.771Z,12.80
2023-06-15T05:15:48.522Z,12.90
2023-06-15T05:18:15.387Z,12.90
2023-06-15T05:20:42.066Z,13.00
2023-06-15T05:23:08.958Z,13.10
2023-06-15T05:25:35.681Z,13.10
2023-06-15T05:28:02.379Z,13.20
2023-06-15T05:30:29.068Z,13.20
2023-06-15T05:32:55.974Z,13.30
2023-06-15T05:35:22.760Z,13.50
2023-06-15T05:37:49.492Z,13.70
2023-06-15T05:40:16.185Z,13.80
2023-06-15T05:42:42.930Z,14.00
2023-06-15T05:45:09.785Z,14.20
2023-06-15T05:47:36.575Z,14.40
2023-06-15T05:50:03.375Z,14.60
2023-06-15T05:52:30.522Z,14.70
2023-06-15T05:54:57.261Z,14.80
2023-06-15T05:57:23.940Z,14.90
2023-06-15T05:59:50.714Z,15.00
2023-06-15T06:02:17.498Z,15.10
2023-06-15T06:04:44.289Z,15.20
2023-06-15T06:07:11.955Z,15.40
2023-06-15T06:09:38.712Z,15.70
2023-06-15T06:12:06.331Z,15.90
2023-06-15T06:14:33.084Z,16.20
2023-06-15T06:16:59.747Z,16.50
2023-06-15T06:19:26.645Z,16.80
2023-06-15T06:21:53.377Z,17.10
2023-06-15T06:24:23.295Z,17.40
2023-06-15T06:26:50.539Z,17.70
2023-06-15T06:29:17.339Z,18.10
2023-06-15T06:31:44.235Z,18.40
2023-06-15T06:34:11.943Z,18.70
2023-06-15T06:36:38.919Z,19.00
2023-06-15T06:39:06.060Z,19.40
2023-06-15T06:41:32.781Z,19.80
2023-06-15T06:43:59.477Z,20.10
2023-06-15T06:46:26.323Z,20.20
2023-06-15T06:48:53.189Z,20.40
2023-06-15T06:51:19.928Z,20.40
2023-06-15T06:53:46.641Z,20.50
2023-06-15T06:56:13.394Z,20.50
2023-06-15T06:58:40.119Z,20.60
2023-06-15T07:01:06.922Z,20.70
2023-06-15T07:03:33.731Z,20.70
2023-06-15T07:06:00.957Z,20.70
2023-06-15T07:08:27.724Z,20.80
2023-06-15T07:10:54.545Z,20.60
2023-06-15T07:13:21.265Z,20.60
2023-06-15T07:15:47.978Z,20.50
2023-06-15T07:18:15.776Z,20.80
2023-06-15T07:20:42.904Z,21.10
2023-06-15T07:23:09.717Z,21.40
2023-06-15T07:25:36.483Z,21.50
2023-06-15T07:28:03.400Z,21.60
2023-06-15T07:30:30.831Z,21.70
2023-06-15T07:32:57.928Z,22.00
2023-06-15T07:35:24.811Z,22.10
2023-06-15T07:37:52.540Z,22.20
2023-06-15T07:40:19.664Z,22.50
2023-06-15T07:42:47.238Z,22.80
2023-06-15T07:45:13.932Z,23.20
2023-06-15T07:47:42.418Z,23.60
2023-06-15T07:50:09.601Z,24.00
2023-06-15T07:52:36.336Z,24.10
2023-06-15T07:55:03.143Z,24.30
2023-06-15T07:57:29.884Z,24.80
2023-06-15T07:59:56.560Z,24.80
2023-06-15T08:02:23.328Z,25.20
2023-06-15T08:04:50.082Z,25.60
2023-06-15T08:07:16.814Z,26.10
2023-06-15T08:09:43.515Z,25.80
2023-06-15T08:12:10.905Z,25.60
2023-06-15T08:14:37.736Z,25.50
2023-06-15T08:17:04.702Z,25.20
2023-06-15T08:19:31.577Z,24.90
2023-06-15T08:21:58.328Z,25.00
2023-06-15T08:24:27.604Z,25.50
2023-06-15T08:26:56.017Z,25.70
2023-06-15T08:29:24.390Z,25.90
2023-06-15T08:31:52.205Z,25.80
2023-06-15T08:34:19.488Z,25.70
2023-06-15T08:36:46.363Z,25.90
2023-06-15T08:39:13.385Z,26.20
2023-06-15T08:41:40.505Z,26.00
2023-06-15T08:44:07.830Z,26.30
2023-06-15T08:46:34.582Z,26.80
2023-06-15T08:49:03.730Z,27.20
2023-06-15T08:51:30.743Z,27.50
2023-06-15T08:53:57.522Z,27.40
2023-06-15T08:56:24.452Z,27.00
2023-06-15T08:58:51.307Z,27.10
2023-06-15T09:01:24.918Z,27.30
2023-06-15T09:03:53.703Z,27.90
2023-06-15T09:06:21.080Z,28.10
2023-06-15T09:08:48.105Z,27.90
2023-06-15T09:11:15.260Z,28.30
2023-06-15T09:13:54.233Z,28.50
2023-06-15T09:16:27.957Z,28.80
2023-06-15T09:18:56.746Z,28.80
2023-06-15T09:21:23.788Z,28.90
2023-06-15T09:23:50.765Z,28.90
2023-06-15T09:26:22.310Z,29.40
2023-06-15T09:28:49.121Z,29.60
2023-06-15T09:31:30.845Z,29.40
2023-06-15T09:34:01.699Z,29.60
2023-06-15T09:36:33.458Z,29.40
2023-06-15T09:39:00.496Z,29.50
2023-06-15T09:41:27.275Z,29.30
2023-06-15T09:43:54.511Z,29.20
2023-06-15T09:46:21.854Z,29.20
2023-06-15T09:48:48.592Z,29.20
2023-06-15T09:51:16.651Z,29.20
2023-06-15T09:53:44.707Z,29.50
2023-06-15T09:56:25.211Z,29.80
2023-06-15T09:58:56.072Z,29.90
2023-06-15T10:01:25.269Z,30.20
2023-06-15T10:03:53.882Z,30.30
2023-06-15T10:06:21.480Z,30.60
2023-06-15T10:08:52.834Z,30.50
2023-06-15T10:11:23.307Z,30.20
2023-06-15T10:13:52.520Z,30.10
2023-06-15T10:16:21.378Z,30.40
2023-06-15T10:18:54.399Z,29.90
2023-06-15T10:21:27.299Z,29.70
2023-06-15T10:23:57.453Z,29.90
2023-06-15T10:26:24.208Z,29.90
2023-06-15T10:28:52.935Z,29.90
2023-06-15T10:31:20.168Z,29.40
2023-06-15T10:33:50.908Z,29.50
2023-06-15T10:36:17.616Z,29.60
2023-06-15T10:39:04.947Z,29.90
2023-06-15T10:41:31.724Z,30.10
2023-06-15T10:44:02.028Z,30.40
2023-06-15T10:46:34.400Z,30.40
2023-06-15T10:49:04.846Z,29.90
2023-06-15T10:51:36.574Z,29.90
2023-06-15T10:54:04.435Z,29.30
2023-06-15T10:56:31.365Z,28.90
2023-06-15T10:59:01.062Z,29.10
2023-06-15T11:01:34.380Z,28.60
2023-06-15T11:04:02.443Z,28.20
2023-06-15T11:06:39.493Z,28.10
2023-06-15T11:09:16.164Z,27.70
2023-06-15T11:11:46.215Z,27.50
2023-06-15T11:14:24.996Z,28.20
2023-06-15T11:17:04.704Z,28.80
2023-06-15T11:19:31.884Z,29.20
2023-06-15T11:22:04.473Z,29.10
2023-06-15T11:24:43.074Z,29.20
2023-06-15T11:27:10.620Z,29.40
2023-06-15T11:29:38.879Z,29.20
2023-06-15T11:32:05.798Z,28.90
2023-06-15T11:34:32.865Z,29.30
2023-06-15T11:37:00.533Z,29.30
2023-06-15T11:39:27.867Z,29.80
2023-06-15T11:41:57.465Z,30.20
2023-06-15T11:44:26.460Z,30.30
2023-06-15T11:46:57.481Z,30.60
2023-06-15T11:49:24.357Z,31.00
2023-06-15T11:51:53.749Z,31.30
2023-06-15T11:54:33.303Z,31.40
2023-06-15T11:57:08.023Z,31.10
2023-06-15T11:59:36.573Z,30.60
2023-06-15T12:02:04.482Z,30.10
2023-06-15T12:04:32.013Z,29.70
2023-06-15T12:07:00.258Z,28.80
2023-06-15T12:09:27.041Z,28.50
2023-06-15T12:11:55.431Z,28.30
2023-06-15T12:14:25.014Z,27.80
2023-06-15T12:16:52.518Z,27.60
2023-06-15T12:19:20.239Z,27.30
2023-06-15T12:21:47.575Z,27.30
2023-06-15T12:24:15.235Z,27.20
2023-06-15T12:26:42.717Z,27.00
2023-06-15T12:29:19.170Z,26.90
2023-06-15T12:31:49.741Z,26.80
2023-06-15T12:34:20.351Z,26.60
2023-06-15T12:36:47.008Z,26.50
2023-06-15T12:39:14.811Z,26.50
2023-06-15T12:41:42.323Z,26.30
2023-06-15T12:44:12.435Z,26.20
2023-06-15T12:46:40.787Z,26.20
2023-06-15T12:49:08.344Z,26.10
2023-06-15T12:51:35.411Z,25.90
2023-06-15T12:54:05.234Z,25.80
2023-06-15T12:56:33.403Z,25.90
2023-06-15T12:59:00.053Z,26.00
2023-06-15T13:01:26.774Z,26.40
2023-06-15T13:03:53.855Z,26.80
2023-06-15T13:06:20.686Z,26.90
2023-06-15T13:08:47.395Z,27.30
2023-06-15T13:11:14.215Z,27.80
2023-06-15T13:13:41.054Z,27.80
2023-06-15T13:16:07.830Z,27.70
2023-06-15T13:18:34.557Z,27.50
2023-06-15T13:21:01.759Z,27.40
2023-06-15T13:23:28.530Z,27.10
2023-06-15T13:25:55.295Z,26.90
2023-06-15T13:28:22.037Z,26.80
2023-06-15T13:30:49.868Z,26.50
2023-06-15T13:33:16.695Z,26.50
2023-06-15T13:35:44.252Z,26.10
2023-06-15T13:38:11.170Z,26.10
2023-06-15T13:40:38.014Z,26.20
2023-06-15T13:43:06.650Z,26.30
2023-06-15T13:45:33.861Z,26.20
2023-06-15T13:48:00.688Z,26.40
2023-06-15T13:50:28.462Z,26.70
2023-06-15T13:52:55.353Z,26.70
2023-06-15T13:55:22.039Z,26.80
2023-06-15T13:57:48.894Z,26.90
2023-06-15T14:00:16.387Z,26.80
2023-06-15T14:02:45.928Z,26.60
2023-06-15T14:05:14.533Z,26.40
2023-06-15T14:07:42.035Z,26.20
2023-06-15T14:10:09.066Z,26.00
2023-06-15T14:12:36.478Z,25.90
2023-06-15T14:15:03.900Z,25.90
2023-06-15T14:17:30.686Z,25.90
2023-06-15T14:19:58.290Z,25.70
2023-06-15T14:22:25.110Z,25.70
2023-06-15T14:24:51.793Z,25.60
2023-06-15T14:27:18.506Z,25.60
2023-06-15T14:29:47.270Z,25.40
2023-06-15T14:32:16.152Z,25.40
2023-06-15T14:34:43.903Z,25.30
2023-06-15T14:37:11.536Z,25.50
2023-06-15T14:39:38.330Z,25.90
2023-06-15T14:42:05.077Z,26.20
2023-06-15T14:44:31.929Z,26.50
2023-06-15T14:46:58.702Z,26.70
2023-06-15T14:49:25.412Z,27.20
2023-06-15T14:51:52.219Z,27.50
2023-06-15T14:54:18.983Z,27.50
2023-06-15T14:56:45.927Z,27.50
2023-06-15T14:59:12.656Z,27.30
2023-06-15T15:01:39.897Z,27.30
2023-06-15T15:04:06.788Z,27.10
2023-06-15T15:06:33.548Z,27.30
2023-06-15T15:09:00.559Z,27.50
2023-06-15T15:11:27.920Z,27.70
2023-06-15T15:13:58.599Z,27.60
2023-06-15T15:16:25.743Z,27.50
2023-06-15T15:18:52.484Z,27.70
2023-06-15T15:21:19.215Z,27.90
2023-06-15T15:23:46.074Z,27.70
2023-06-15T15:26:12.942Z,27.50
2023-06-15T15:28:40.759Z,27.50
2023-06-15T15:31:07.642Z,27.50
2023-06-15T15:33:34.409Z,27.60
2023-06-15T15:36:01.203Z,27.70
2023-06-15T15:38:27.844Z,27.70
2023-06-15T15:40:54.841Z,27.70
2023-06-15T15:43:21.871Z,27.70
2023-06-15T15:45:48.756Z,27.50
2023-06-15T15:48:15.894Z,27.60
2023-06-15T15:50:42.750Z,27.50
2023-06-15T15:53:09.473Z,27.50
2023-06-15T15:55:36.358Z,27.20
2023-06-15T15:58:03.358Z,27.20
2023-06-15T16:00:30.331Z,26.90
2023-06-15T16:02:57.323Z,26.90
2023-06-15T16:05:24.099Z,27.00
2023-06-15T16:07:50.816Z,27.00
2023-06-15T16:10:17.698Z,27.10
2023-06-15T16:12:44.573Z,26.90
2023-06-15T16:15:11.674Z,26.70
2023-06-15T16:17:38.695Z,26.80
2023-06-15T16:20:05.862Z,26.70
2023-06-15T16:22:33.096Z,26.70
2023-06-15T16:25:00.624Z,26.60
2023-06-15T16:27:27.494Z,26.50
2023-06-15T16:29:54.176Z,26.50
2023-06-15T16:32:21.645Z,26.40
2023-06-15T16:34:48.632Z,26.30
2023-06-15T16:37:15.385Z,26.30
2023-06-15T16:39:46.016Z,26.30
2023-06-15T16:42:13.595Z,26.20
2023-06-15T16:44:40.743Z,26.00
2023-06-15T16:47:07.672Z,25.90
2023-06-15T16:49:38.168Z,25.90
2023-06-15T16:52:08.577Z,25.90
2023-06-15T16:54:39.281Z,25.90
2023-06-15T16:57:08.614Z,25.80
2023-06-15T16:59:36.100Z,25.80
2023-06-15T17:02:04.082Z,25.70
2023-06-15T17:04:31.037Z,25.60
2023-06-15T17:06:58.015Z,25.50
2023-06-15T17:09:26.108Z,25.40
2023-06-15T17:11:53.244Z,25.30
2023-06-15T17:14:20.032Z,25.20
2023-06-15T17:16:47.129Z,24.90
2023-06-15T17:19:13.891Z,24.70
2023-06-15T17:21:42.112Z,24.60
2023-06-15T17:24:09.279Z,24.50
2023-06-15T17:26:37.510Z,24.20
2023-06-15T17:29:04.603Z,24.10
2023-06-15T17:31:31.611Z,23.90
2023-06-15T17:33:58.291Z,23.80
2023-06-15T17:36:25.079Z,23.60
2023-06-15T17:38:51.764Z,23.60
2023-06-15T17:41:18.522Z,23.40
2023-06-15T17:43:45.291Z,23.40
2023-06-15T17:46:14.836Z,23.30
2023-06-15T17:48:42.107Z,23.30
2023-06-15T17:51:08.817Z,23.30
2023-06-15T17:53:35.773Z,23.20
2023-06-15T17:56:03.115Z,23.20
2023-06-15T17:58:30.179Z,23.10
2023-06-15T18:00:57.016Z,23.10
2023-06-15T18:03:24.992Z,23.00
2023-06-15T18:05:52.510Z,23.00
2023-06-15T18:08:19.314Z,22.90
2023-06-15T18:10:46.397Z,22.80
2023-06-15T18:13:13.264Z,22.70
2023-06-15T18:19:00.083Z,22.60
2023-06-15T18:21:27.008Z,22.40
2023-06-15T18:23:53.930Z,22.40
2023-06-15T18:26:21.328Z,22.30
2023-06-15T18:28:51.721Z,22.20
2023-06-15T18:31:18.740Z,22.20
2023-06-15T18:33:45.462Z,22.10
2023-06-15T18:36:14.424Z,22.00
2023-06-15T18:38:41.119Z,21.90
2023-06-15T18:41:07.802Z,21.90
2023-06-15T18:43:34.795Z,21.80
2023-06-15T18:46:01.628Z,21.70
2023-06-15T18:48:28.327Z,21.70
2023-06-15T18:50:55.210Z,21.60
2023-06-15T18:53:22.005Z,21.60
2023-06-15T18:55:49.193Z,21.50
2023-06-15T18:58:16.851Z,21.50
2023-06-15T19:00:44.910Z,21.40
2023-06-15T19:03:11.761Z,21.30
2023-06-15T19:05:39.374Z,21.30
2023-06-15T19:08:06.803Z,21.20
2023-06-15T19:10:33.572Z,21.20
2023-06-15T19:13:00.384Z,21.10
2023-06-15T19:15:27.142Z,21.00
2023-06-15T19:17:54.063Z,20.90
2023-06-15T19:20:20.913Z,20.90
2023-06-15T19:22:47.589Z,20.90
2023-06-15T19:25:14.488Z,20.80
2023-06-15T19:27:41.229Z,20.70
2023-06-15T19:30:08.256Z,20.60
2023-06-15T19:35:15.674Z,20.50
2023-06-15T19:37:42.392Z,20.30
2023-06-15T19:40:11.809Z,20.30
2023-06-15T19:42:38.587Z,20.20
2023-06-15T19:45:05.611Z,20.20
2023-06-15T19:47:32.497Z,20.10
2023-06-15T19:49:59.352Z,20.00
2023-06-15T19:52:26.048Z,20.00
2023-06-15T19:54:52.831Z,19.90
2023-06-15T19:57:19.617Z,19.80
2023-06-15T19:59:46.958Z,19.70
2023-06-15T20:02:13.841Z,19.70
2023-06-15T20:04:40.655Z,19.60
2023-06-15T20:07:07.625Z,19.60
2023-06-15T20:09:34.674Z,19.60
2023-06-15T20:12:01.407Z,19.50
2023-06-15T20:14:28.136Z,19.50
2023-06-15T20:16:54.923Z,19.40
2023-06-15T20:19:21.840Z,19.40
2023-06-15T20:21:48.875Z,19.30
2023-06-15T20:24:15.875Z,19.20
2023-06-15T20:26:44.964Z,19.20
2023-06-15T20:29:12.792Z,19.20
2023-06-15T20:31:40.299Z,19.10
2023-06-15T20:34:07.852Z,19.10
2023-06-15T20:36:34.729Z,19.00
2023-06-15T20:39:01.433Z,18.90
2023-06-15T20:41:28.145Z,18.80
2023-06-15T20:43:54.966Z,18.80
2023-06-15T20:46:24.327Z,18.70
2023-06-15T20:48:51.054Z,18.60
2023-06-15T20:51:17.775Z,18.50
2023-06-15T20:53:44.980Z,18.30
2023-06-15T20:56:11.674Z,18.20
2023-06-15T20:58:38.461Z,18.10
2023-06-15T21:01:06.185Z,18.00
2023-06-15T21:03:33.650Z,18.00
2023-06-15T21:06:01.879Z,17.90
2023-06-15T21:08:32.808Z,17.80
2023-06-15T21:11:00.493Z,17.70
2023-06-15T21:13:27.493Z,17.70
2023-06-15T21:15:54.525Z,17.60
2023-06-15T21:18:21.233Z,17.50
2023-06-15T21:20:50.013Z,17.50
2023-06-15T21:23:16.943Z,17.40
2023-06-15T21:25:43.772Z,17.40
2023-06-15T21:28:10.802Z,17.30
2023-06-15T21:30:38.994Z,17.20
2023-06-15T21:33:06.749Z,17.10
2023-06-15T21:35:33.567Z,17.10
2023-06-15T21:38:00.298Z,17.10
2023-06-15T21:40:27.068Z,17.00
2023-06-15T21:42:53.742Z,17.00
2023-06-15T21:45:20.459Z,17.00
2023-06-15T21:47:50.362Z,17.00
2023-06-15T21:50:19.189Z,16.90
2023-06-15T21:52:48.474Z,16.90
2023-06-15T21:55:16.094Z,16.90
2023-06-15T21:57:45.503Z,16.80
2023-06-15T22:00:13.300Z,16.70
2023-06-15T22:02:40.155Z,16.50
2023-06-15T22:05:08.281Z,16.40
2023-06-15T22:07:36.044Z,16.30
2023-06-15T22:10:03.893Z,16.20
2023-06-15T22:12:34.104Z,16.10
2023-06-15T22:15:01.279Z,16.00
2023-06-15T22:17:29.232Z,15.90
2023-06-15T22:19:58.343Z,15.80
2023-06-15T22:22:25.752Z,15.70
2023-06-15T22:24:55.827Z,15.70
2023-06-15T22:27:22.709Z,15.60
2023-06-15T22:29:52.267Z,15.60
2023-06-15T22:32:19.863Z,15.50
2023-06-15T22:34:47.197Z,15.60
2023-06-15T22:37:13.930Z,15.50
2023-06-15T22:39:40.740Z,15.50
2023-06-15T22:42:08.704Z,15.50
2023-06-15T22:44:38.049Z,15.50
2023-06-15T22:47:06.456Z,15.40
2023-06-15T22:49:35.426Z,15.40
2023-06-15T22:52:04.327Z,15.40
2023-06-15T22:54:31.285Z,15.40
2023-06-15T22:56:58.090Z,15.30
2023-06-15T22:59:25.055Z,15.30
2023-06-15T23:01:51.917Z,15.30
2023-06-15T23:04:18.768Z,15.30
2023-06-15T23:06:45.587Z,15.20
2023-06-15T23:09:14.050Z,15.20
2023-06-15T23:11:40.922Z,15.20
2023-06-15T23:14:09.220Z,15.20
2023-06-15T23:16:36.493Z,15.20
2023-06-15T23:19:06.737Z,15.20
2023-06-15T23:21:35.375Z,15.10
2023-06-15T23:24:06.198Z,15.10
2023-06-15T23:26:40.027Z,15.20
2023-06-15T23:29:07.431Z,15.20
2023-06-15T23:31:34.677Z,15.10
2023-06-15T23:34:01.449Z,15.10
2023-06-15T23:36:28.160Z,15.00
2023-06-15T23:38:55.033Z,14.90
2023-06-15T23:41:24.672Z,14.80
2023-06-15T23:43:51.902Z,14.80
2023-06-15T23:46:19.374Z,14.70
2023-06-15T23:48:46.558Z,14.70
2023-06-15T23:51:13.638Z,14.70
2023-06-15T23:53:40.621Z,14.70
2023-06-15T23:56:09.309Z,14.70
2023-06-15T23:58:36.945Z,14.60
